sensor_id;sensor_type;location;lat;lon;timestamp;pressure;altitude;pressure_sealevel;temperature;humidity
3150;BME280;32503;47.748;8.960;2023-04-22T00:00:14;96309.81;;;13.07;65.86
3150;BME280;32503;47.748;8.960;2023-04-22T00:02:42;96320.28;;;13.05;65.36
3150;BME280;32503;47.748;8.960;2023-04-22T00:05:10;96319.88;;;13.00;65.92
3150;BME280;32503;47.748;8.960;2023-04-22T00:07:39;96318.31;;;12.99;66.12
3150;BME280;32503;47.748;8.960;2023-04-22T00:10:09;96313.31;;;12.97;65.69
3150;BME280;32503;47.748;8.960;2023-04-22T00:12:36;96312.13;;;12.95;66.15
3150;BME280;32503;47.748;8.960;2023-04-22T00:15:04;96311.34;;;12.90;66.10
3150;BME280;32503;47.748;8.960;2023-04-22T00:17:32;96319.09;;;12.92;66.20
3150;BME280;32503;47.748;8.960;2023-04-22T00:20:00;96317.94;;;12.97;65.84
3150;BME280;32503;47.748;8.960;2023-04-22T00:22:27;96317.56;;;12.98;65.62
3150;BME280;32503;47.748;8.960;2023-04-22T00:24:55;96314.84;;;12.95;65.77
3150;BME280;32503;47.748;8.960;2023-04-22T00:27:22;96314.44;;;12.93;65.67
3150;BME280;32503;47.748;8.960;2023-04-22T00:29:49;96314.44;;;12.93;65.56
3150;BME280;32503;47.748;8.960;2023-04-22T00:32:16;96316.78;;;12.90;65.45
3150;BME280;32503;47.748;8.960;2023-04-22T00:34:43;96315.19;;;12.89;65.77
3150;BME280;32503;47.748;8.960;2023-04-22T00:37:10;96312.09;;;12.87;65.81
3150;BME280;32503;47.748;8.960;2023-04-22T00:39:38;96308.59;;;12.76;66.12
3150;BME280;32503;47.748;8.960;2023-04-22T00:42:07;96303.13;;;12.69;66.09
3150;BME280;32503;47.748;8.960;2023-04-22T00:44:35;96312.03;;;12.69;65.87
3150;BME280;32503;47.748;8.960;2023-04-22T00:47:04;96305.03;;;12.65;65.94
3150;BME280;32503;47.748;8.960;2023-04-22T00:49:31;96299.94;;;12.52;66.38
3150;BME280;32503;47.748;8.960;2023-04-22T00:52:00;96305.00;;;12.54;66.55
3150;BME280;32503;47.748;8.960;2023-04-22T00:54:28;96302.28;;;12.54;66.27
3150;BME280;32503;47.748;8.960;2023-04-22T00:56:55;96305.00;;;12.58;66.47
3150;BME280;32503;47.748;8.960;2023-04-22T00:59:25;96307.28;;;12.48;66.62
3150;BME280;32503;47.748;8.960;2023-04-22T01:01:53;96322.78;;;12.44;67.12
3150;BME280;32503;47.748;8.960;2023-04-22T01:04:20;96311.88;;;12.33;66.95
3150;BME280;32503;47.748;8.960;2023-04-22T01:06:51;96307.19;;;12.27;67.49
3150;BME280;32503;47.748;8.960;2023-04-22T01:09:18;96316.50;;;12.33;66.71
3150;BME280;32503;47.748;8.960;2023-04-22T01:11:46;96325.00;;;12.31;66.62
3150;BME280;32503;47.748;8.960;2023-04-22T01:14:13;96327.28;;;12.22;67.05
3150;BME280;32503;47.748;8.960;2023-04-22T01:16:43;96320.69;;;12.20;67.66
3150;BME280;32503;47.748;8.960;2023-04-22T01:19:11;96316.78;;;12.17;67.52
3150;BME280;32503;47.748;8.960;2023-04-22T01:21:38;96310.94;;;12.08;67.44
3150;BME280;32503;47.748;8.960;2023-04-22T01:24:07;96326.47;;;12.14;66.98
3150;BME280;32503;47.748;8.960;2023-04-22T01:26:35;96316.00;;;12.13;67.23
3150;BME280;32503;47.748;8.960;2023-04-22T01:29:04;96313.25;;;12.06;67.56
3150;BME280;32503;47.748;8.960;2023-04-22T01:31:31;96308.56;;;12.03;67.61
3150;BME280;32503;47.748;8.960;2023-04-22T01:33:58;96318.63;;;11.99;67.77
3150;BME280;32503;47.748;8.960;2023-04-22T01:36:26;96313.19;;;11.99;67.33
3150;BME280;32503;47.748;8.960;2023-04-22T01:38:53;96318.59;;;11.95;66.97
3150;BME280;32503;47.748;8.960;2023-04-22T01:41:21;96306.56;;;11.92;67.14
3150;BME280;32503;47.748;8.960;2023-04-22T01:43:49;96317.72;;;11.87;67.17
3150;BME280;32503;47.748;8.960;2023-04-22T01:46:17;96309.97;;;11.86;67.40
3150;BME280;32503;47.748;8.960;2023-04-22T01:48:44;96315.31;;;11.79;67.57
3150;BME280;32503;47.748;8.960;2023-04-22T01:51:15;96320.00;;;11.82;67.17
3150;BME280;32503;47.748;8.960;2023-04-22T01:53:42;96313.03;;;11.81;68.04
3150;BME280;32503;47.748;8.960;2023-04-22T01:56:09;96315.31;;;11.75;67.45
3150;BME280;32503;47.748;8.960;2023-04-22T01:58:39;96304.44;;;11.71;68.18
3150;BME280;32503;47.748;8.960;2023-04-22T02:01:07;96304.47;;;11.75;67.65
3150;BME280;32503;47.748;8.960;2023-04-22T02:03:35;96308.31;;;11.70;67.89
3150;BME280;32503;47.748;8.960;2023-04-22T02:06:02;96303.25;;;11.65;68.18
3150;BME280;32503;47.748;8.960;2023-04-22T02:08:29;96303.66;;;11.67;68.05
3150;BME280;32503;47.748;8.960;2023-04-22T02:10:56;96304.38;;;11.64;68.15
3150;BME280;32503;47.748;8.960;2023-04-22T02:13:25;96301.66;;;11.61;68.12
3150;BME280;32503;47.748;8.960;2023-04-22T02:15:54;96305.09;;;11.57;67.79
3150;BME280;32503;47.748;8.960;2023-04-22T02:18:21;96301.22;;;11.55;67.59
3150;BME280;32503;47.748;8.960;2023-04-22T02:20:48;96303.53;;;11.53;67.46
3150;BME280;32503;47.748;8.960;2023-04-22T02:23:15;96308.53;;;11.51;67.64
3150;BME280;32503;47.748;8.960;2023-04-22T02:25:47;96308.88;;;11.46;67.11
3150;BME280;32503;47.748;8.960;2023-04-22T02:28:17;96308.03;;;11.38;67.40
3150;BME280;32503;47.748;8.960;2023-04-22T02:30:44;96303.00;;;11.36;67.73
3150;BME280;32503;47.748;8.960;2023-04-22T02:33:13;96307.66;;;11.39;67.09
3150;BME280;32503;47.748;8.960;2023-04-22T02:35:40;96310.28;;;11.32;67.82
3150;BME280;32503;47.748;8.960;2023-04-22T02:38:07;96309.13;;;11.30;67.49
3150;BME280;32503;47.748;8.960;2023-04-22T02:40:34;96300.19;;;11.26;67.55
3150;BME280;32503;47.748;8.960;2023-04-22T02:43:01;96300.47;;;11.17;68.29
3150;BME280;32503;47.748;8.960;2023-04-22T02:45:28;96310.97;;;11.22;68.16
3150;BME280;32503;47.748;8.960;2023-04-22T02:47:55;96309.38;;;11.17;67.85
3150;BME280;32503;47.748;8.960;2023-04-22T02:50:23;96314.75;;;11.14;68.24
3150;BME280;32503;47.748;8.960;2023-04-22T02:52:50;96315.50;;;11.11;68.22
3150;BME280;32503;47.748;8.960;2023-04-22T02:55:17;96318.53;;;11.06;68.33
3150;BME280;32503;47.748;8.960;2023-04-22T02:57:45;96314.25;;;11.05;68.11
3150;BME280;32503;47.748;8.960;2023-04-22T03:00:12;96311.63;;;11.08;68.10
3150;BME280;32503;47.748;8.960;2023-04-22T03:02:39;96320.88;;;11.07;68.02
3150;BME280;32503;47.748;8.960;2023-04-22T03:05:07;96316.22;;;11.08;68.40
3150;BME280;32503;47.748;8.960;2023-04-22T03:07:36;96310.06;;;11.07;68.56
3150;BME280;32503;47.748;8.960;2023-04-22T03:10:04;96306.16;;;11.05;67.70
3150;BME280;32503;47.748;8.960;2023-04-22T03:12:31;96299.84;;;10.93;67.50
3150;BME280;32503;47.748;8.960;2023-04-22T03:14:58;96303.63;;;10.85;68.54
3150;BME280;32503;47.748;8.960;2023-04-22T03:17:25;96307.81;;;10.79;68.96
3150;BME280;32503;47.748;8.960;2023-04-22T03:19:52;96307.84;;;10.82;68.32
3150;BME280;32503;47.748;8.960;2023-04-22T03:22:19;96314.41;;;10.81;67.85
3150;BME280;32503;47.748;8.960;2023-04-22T03:24:47;96315.91;;;10.79;67.51
3150;BME280;32503;47.748;8.960;2023-04-22T03:27:15;96319.34;;;10.76;68.00
3150;BME280;32503;47.748;8.960;2023-04-22T03:29:42;96318.94;;;10.74;67.89
3150;BME280;32503;47.748;8.960;2023-04-22T03:32:09;96331.97;;;10.65;68.46
3150;BME280;32503;47.748;8.960;2023-04-22T03:34:36;96325.72;;;10.60;68.19
3150;BME280;32503;47.748;8.960;2023-04-22T03:37:03;96329.09;;;10.50;68.41
3150;BME280;32503;47.748;8.960;2023-04-22T03:39:30;96328.25;;;10.46;68.85
3150;BME280;32503;47.748;8.960;2023-04-22T03:41:58;96310.09;;;10.43;68.98
3150;BME280;32503;47.748;8.960;2023-04-22T03:44:26;96326.03;;;10.52;68.61
3150;BME280;32503;47.748;8.960;2023-04-22T03:46:53;96317.16;;;10.55;68.71
3150;BME280;32503;47.748;8.960;2023-04-22T03:49:20;96331.03;;;10.53;67.91
3150;BME280;32503;47.748;8.960;2023-04-22T03:51:47;96330.19;;;10.46;68.50
3150;BME280;32503;47.748;8.960;2023-04-22T03:54:14;96344.81;;;10.44;68.90
3150;BME280;32503;47.748;8.960;2023-04-22T03:56:41;96351.66;;;10.35;68.53
3150;BME280;32503;47.748;8.960;2023-04-22T03:59:09;96347.78;;;10.36;68.68
3150;BME280;32503;47.748;8.960;2023-04-22T04:01:36;96353.63;;;10.38;68.24
3150;BME280;32503;47.748;8.960;2023-04-22T04:04:03;96364.31;;;10.31;68.62
3150;BME280;32503;47.748;8.960;2023-04-22T04:06:30;96370.81;;;10.26;69.20
3150;BME280;32503;47.748;8.960;2023-04-22T04:08:58;96361.06;;;10.21;69.89
3150;BME280;32503;47.748;8.960;2023-04-22T04:11:26;96354.53;;;10.22;68.86
3150;BME280;32503;47.748;8.960;2023-04-22T04:13:53;96354.91;;;10.21;68.98
3150;BME280;32503;47.748;8.960;2023-04-22T04:16:21;96363.41;;;10.23;69.64
3150;BME280;32503;47.748;8.960;2023-04-22T04:18:49;96359.53;;;10.20;68.84
3150;BME280;32503;47.748;8.960;2023-04-22T04:21:16;96363.78;;;10.21;69.45
3150;BME280;32503;47.748;8.960;2023-04-22T04:23:45;96359.94;;;10.22;69.09
3150;BME280;32503;47.748;8.960;2023-04-22T04:26:12;96357.56;;;10.17;68.73
3150;BME280;32503;47.748;8.960;2023-04-22T04:28:39;96355.56;;;10.14;69.19
3150;BME280;32503;47.748;8.960;2023-04-22T04:31:06;96352.50;;;10.16;69.00
3150;BME280;32503;47.748;8.960;2023-04-22T04:33:35;96351.31;;;10.13;69.05
3150;BME280;32503;47.748;8.960;2023-04-22T04:36:03;96355.97;;;10.16;69.10
3150;BME280;32503;47.748;8.960;2023-04-22T04:38:30;96354.44;;;10.15;69.11
3150;BME280;32503;47.748;8.960;2023-04-22T04:40:57;96363.31;;;10.16;68.46
3150;BME280;32503;47.748;8.960;2023-04-22T04:43:24;96364.09;;;10.16;69.39
3150;BME280;32503;47.748;8.960;2023-04-22T04:45:51;96357.56;;;10.17;69.15
3150;BME280;32503;47.748;8.960;2023-04-22T04:48:18;96358.72;;;10.20;68.70
3150;BME280;32503;47.748;8.960;2023-04-22T04:50:51;96353.78;;;10.22;69.39
3150;BME280;32503;47.748;8.960;2023-04-22T04:53:20;96359.94;;;10.22;69.69
3150;BME280;32503;47.748;8.960;2023-04-22T04:55:47;96353.06;;;10.29;68.90
3150;BME280;32503;47.748;8.960;2023-04-22T04:58:14;96357.00;;;10.31;69.04
3150;BME280;32503;47.748;8.960;2023-04-22T05:00:41;96355.50;;;10.34;68.28
3150;BME280;32503;47.748;8.960;2023-04-22T05:03:08;96356.78;;;10.43;68.62
3150;BME280;32503;47.748;8.960;2023-04-22T05:05:35;96352.56;;;10.46;68.36
3150;BME280;32503;47.748;8.960;2023-04-22T05:08:04;96360.69;;;10.46;68.57
3150;BME280;32503;47.748;8.960;2023-04-22T05:10:31;96357.25;;;10.49;68.17
3150;BME280;32503;47.748;8.960;2023-04-22T05:12:58;96367.44;;;10.59;67.86
3150;BME280;32503;47.748;8.960;2023-04-22T05:15:25;96367.13;;;10.65;67.95
3150;BME280;32503;47.748;8.960;2023-04-22T05:17:53;96371.94;;;10.78;68.10
3150;BME280;32503;47.748;8.960;2023-04-22T05:20:20;96368.50;;;10.85;67.59
3150;BME280;32503;47.748;8.960;2023-04-22T05:22:47;96374.72;;;10.86;68.33
3150;BME280;32503;47.748;8.960;2023-04-22T05:25:15;96377.16;;;10.94;67.90
3150;BME280;32503;47.748;8.960;2023-04-22T05:27:42;96369.84;;;10.98;67.32
3150;BME280;32503;47.748;8.960;2023-04-22T05:30:10;96370.69;;;11.06;67.64
3150;BME280;32503;47.748;8.960;2023-04-22T05:32:37;96369.59;;;11.11;67.70
3150;BME280;32503;47.748;8.960;2023-04-22T05:35:05;96370.81;;;11.17;67.06
3150;BME280;32503;47.748;8.960;2023-04-22T05:37:32;96370.41;;;11.15;66.78
3150;BME280;32503;47.748;8.960;2023-04-22T05:39:59;96372.78;;;11.20;66.94
3150;BME280;32503;47.748;8.960;2023-04-22T05:42:28;96374.41;;;11.25;67.54
3150;BME280;32503;47.748;8.960;2023-04-22T05:44:55;96378.28;;;11.27;66.90
3150;BME280;32503;47.748;8.960;2023-04-22T05:47:22;96384.22;;;11.40;67.21
3150;BME280;32503;47.748;8.960;2023-04-22T05:49:49;96379.28;;;11.49;66.50
3150;BME280;32503;47.748;8.960;2023-04-22T05:52:16;96377.78;;;11.55;66.76
3150;BME280;32503;47.748;8.960;2023-04-22T05:54:43;96375.19;;;11.66;66.26
3150;BME280;32503;47.748;8.960;2023-04-22T05:57:10;96383.44;;;11.77;66.17
3150;BME280;32503;47.748;8.960;2023-04-22T05:59:39;96374.97;;;11.86;65.93
3150;BME280;32503;47.748;8.960;2023-04-22T06:02:06;96360.81;;;12.03;65.76
3150;BME280;32503;47.748;8.960;2023-04-22T06:04:33;96365.50;;;12.10;65.09
3150;BME280;32503;47.748;8.960;2023-04-22T06:07:00;96362.09;;;12.17;65.17
3150;BME280;32503;47.748;8.960;2023-04-22T06:09:27;96359.06;;;12.29;64.63
3150;BME280;32503;47.748;8.960;2023-04-22T06:11:54;96364.50;;;12.29;65.04
3150;BME280;32503;47.748;8.960;2023-04-22T06:14:22;96362.16;;;12.27;64.61
3150;BME280;32503;47.748;8.960;2023-04-22T06:16:51;96358.28;;;12.25;65.12
3150;BME280;32503;47.748;8.960;2023-04-22T06:19:18;96346.63;;;12.24;65.26
3150;BME280;32503;47.748;8.960;2023-04-22T06:21:45;96352.09;;;12.31;64.50
3150;BME280;32503;47.748;8.960;2023-04-22T06:24:12;96361.03;;;12.32;64.90
3150;BME280;32503;47.748;8.960;2023-04-22T06:26:39;96366.09;;;12.37;64.49
3150;BME280;32503;47.748;8.960;2023-04-22T06:29:06;96365.34;;;12.44;64.42
3150;BME280;32503;47.748;8.960;2023-04-22T06:31:33;96373.94;;;12.49;64.49
3150;BME280;32503;47.748;8.960;2023-04-22T06:34:02;96379.41;;;12.64;64.37
3150;BME280;32503;47.748;8.960;2023-04-22T06:36:29;96383.38;;;12.81;64.48
3150;BME280;32503;47.748;8.960;2023-04-22T06:38:58;96383.03;;;12.93;63.50
3150;BME280;32503;47.748;8.960;2023-04-22T06:41:25;96396.81;;;13.33;63.23
3150;BME280;32503;47.748;8.960;2023-04-22T06:43:52;96390.66;;;13.64;61.38
3150;BME280;32503;47.748;8.960;2023-04-22T06:46:19;96392.63;;;14.00;60.73
3150;BME280;32503;47.748;8.960;2023-04-22T06:48:46;96402.75;;;14.07;59.32
3150;BME280;32503;47.748;8.960;2023-04-22T06:51:15;96407.78;;;14.12;59.12
3150;BME280;32503;47.748;8.960;2023-04-22T06:53:42;96408.56;;;14.16;59.43
3150;BME280;32503;47.748;8.960;2023-04-22T06:56:09;96410.50;;;14.12;59.27
3150;BME280;32503;47.748;8.960;2023-04-22T06:58:36;96411.28;;;14.09;59.51
3150;BME280;32503;47.748;8.960;2023-04-22T07:01:03;96413.63;;;14.10;59.62
3150;BME280;32503;47.748;8.960;2023-04-22T07:03:30;96414.38;;;14.11;59.83
3150;BME280;32503;47.748;8.960;2023-04-22T07:05:57;96414.38;;;14.14;60.15
3150;BME280;32503;47.748;8.960;2023-04-22T07:08:25;96419.44;;;14.27;59.68
3150;BME280;32503;47.748;8.960;2023-04-22T07:10:52;96414.75;;;14.34;59.76
3150;BME280;32503;47.748;8.960;2023-04-22T07:13:19;96420.59;;;14.54;59.51
3150;BME280;32503;47.748;8.960;2023-04-22T07:15:46;96421.69;;;14.86;58.67
3150;BME280;32503;47.748;8.960;2023-04-22T07:18:13;96424.31;;;15.22;57.87
3150;BME280;32503;47.748;8.960;2023-04-22T07:20:40;96425.34;;;15.57;57.39
3150;BME280;32503;47.748;8.960;2023-04-22T07:23:07;96421.19;;;16.01;56.22
3150;BME280;32503;47.748;8.960;2023-04-22T07:25:36;96416.94;;;16.45;55.16
3150;BME280;32503;47.748;8.960;2023-04-22T07:28:03;96422.81;;;16.81;54.05
3150;BME280;32503;47.748;8.960;2023-04-22T07:30:30;96418.66;;;17.08;53.10
3150;BME280;32503;47.748;8.960;2023-04-22T07:32:57;96413.69;;;17.33;52.42
3150;BME280;32503;47.748;8.960;2023-04-22T07:35:24;96408.41;;;17.50;51.64
3150;BME280;32503;47.748;8.960;2023-04-22T07:37:53;96402.41;;;17.89;51.05
3150;BME280;32503;47.748;8.960;2023-04-22T07:40:20;96393.59;;;18.29;50.28
3150;BME280;32503;47.748;8.960;2023-04-22T07:42:48;96392.69;;;18.79;48.98
3150;BME280;32503;47.748;8.960;2023-04-22T07:45:16;96389.88;;;19.06;48.38
3150;BME280;32503;47.748;8.960;2023-04-22T07:47:44;96394.28;;;19.40;47.67
3150;BME280;32503;47.748;8.960;2023-04-22T07:50:11;96409.19;;;19.76;47.11
3150;BME280;32503;47.748;8.960;2023-04-22T07:52:38;96421.59;;;20.00;46.22
3150;BME280;32503;47.748;8.960;2023-04-22T07:55:07;96421.06;;;20.22;45.56
3150;BME280;32503;47.748;8.960;2023-04-22T07:57:34;96414.72;;;20.41;45.51
3150;BME280;32503;47.748;8.960;2023-04-22T08:00:06;96407.59;;;20.60;45.29
3150;BME280;32503;47.748;8.960;2023-04-22T08:02:34;96404.34;;;20.66;44.87
3150;BME280;32503;47.748;8.960;2023-04-22T08:05:01;96400.47;;;20.79;44.70
3150;BME280;32503;47.748;8.960;2023-04-22T08:07:28;96398.28;;;20.87;43.76
3150;BME280;32503;47.748;8.960;2023-04-22T08:09:55;96384.13;;;20.89;44.17
3150;BME280;32503;47.748;8.960;2023-04-22T08:12:22;96382.41;;;21.08;43.60
3150;BME280;32503;47.748;8.960;2023-04-22T08:14:49;96395.66;;;21.26;43.59
3150;BME280;32503;47.748;8.960;2023-04-22T08:17:17;96398.50;;;21.51;43.74
3150;BME280;32503;47.748;8.960;2023-04-22T08:19:46;96390.47;;;21.70;42.25
3150;BME280;32503;47.748;8.960;2023-04-22T08:22:14;96390.13;;;21.55;41.86
3150;BME280;32503;47.748;8.960;2023-04-22T08:24:42;96389.03;;;21.52;43.12
3150;BME280;32503;47.748;8.960;2023-04-22T08:27:09;96382.00;;;21.64;42.84
3150;BME280;32503;47.748;8.960;2023-04-22T08:29:36;96381.38;;;21.44;42.63
3150;BME280;32503;47.748;8.960;2023-04-22T08:32:03;96392.78;;;21.58;43.17
3150;BME280;32503;47.748;8.960;2023-04-22T08:34:32;96395.00;;;21.64;42.89
3150;BME280;32503;47.748;8.960;2023-04-22T08:36:59;96393.53;;;21.72;42.37
3150;BME280;32503;47.748;8.960;2023-04-22T08:39:26;96395.09;;;21.73;42.41
3150;BME280;32503;47.748;8.960;2023-04-22T08:41:56;96392.88;;;21.68;42.31
3150;BME280;32503;47.748;8.960;2023-04-22T08:44:23;96392.66;;;21.75;42.52
3150;BME280;32503;47.748;8.960;2023-04-22T08:46:51;96394.00;;;21.96;42.14
3150;BME280;32503;47.748;8.960;2023-04-22T08:49:19;96387.59;;;22.12;42.06
3150;BME280;32503;47.748;8.960;2023-04-22T08:51:49;96391.00;;;22.03;40.75
3150;BME280;32503;47.748;8.960;2023-04-22T08:54:17;96387.13;;;22.26;41.29
3150;BME280;32503;47.748;8.960;2023-04-22T08:56:45;96382.44;;;22.62;41.08
3150;BME280;32503;47.748;8.960;2023-04-22T08:59:12;96385.00;;;22.78;40.30
3150;BME280;32503;47.748;8.960;2023-04-22T09:01:40;96377.28;;;22.51;38.04
3150;BME280;32503;47.748;8.960;2023-04-22T09:04:09;96366.66;;;22.40;38.77
3150;BME280;32503;47.748;8.960;2023-04-22T09:06:37;96372.72;;;22.35;38.67
3150;BME280;32503;47.748;8.960;2023-04-22T09:09:06;96362.34;;;22.39;39.59
3150;BME280;32503;47.748;8.960;2023-04-22T09:11:34;96368.53;;;22.65;39.43
3150;BME280;32503;47.748;8.960;2023-04-22T09:14:02;96359.59;;;22.96;39.70
3150;BME280;32503;47.748;8.960;2023-04-22T09:16:30;96358.59;;;23.25;37.41
3150;BME280;32503;47.748;8.960;2023-04-22T09:18:58;96359.91;;;22.98;35.91
3150;BME280;32503;47.748;8.960;2023-04-22T09:21:26;96363.13;;;22.97;36.73
3150;BME280;32503;47.748;8.960;2023-04-22T09:23:55;96357.38;;;23.26;36.75
3150;BME280;32503;47.748;8.960;2023-04-22T09:26:25;96360.72;;;23.21;34.93
3150;BME280;32503;47.748;8.960;2023-04-22T09:28:55;96355.78;;;23.16;36.10
3150;BME280;32503;47.748;8.960;2023-04-22T09:31:24;96350.94;;;23.29;35.91
3150;BME280;32503;47.748;8.960;2023-04-22T09:33:54;96345.19;;;23.14;35.68
3150;BME280;32503;47.748;8.960;2023-04-22T09:36:24;96355.00;;;22.58;35.35
3150;BME280;32503;47.748;8.960;2023-04-22T09:38:52;96347.28;;;22.18;36.16
3150;BME280;32503;47.748;8.960;2023-04-22T09:41:27;96346.25;;;21.64;38.03
3150;BME280;32503;47.748;8.960;2023-04-22T09:43:56;96356.56;;;21.47;37.30
3150;BME280;32503;47.748;8.960;2023-04-22T09:46:26;96350.22;;;21.76;37.91
3150;BME280;32503;47.748;8.960;2023-04-22T09:48:55;96340.72;;;22.03;37.71
3150;BME280;32503;47.748;8.960;2023-04-22T09:51:24;96343.88;;;22.27;37.63
3150;BME280;32503;47.748;8.960;2023-04-22T09:53:59;96344.66;;;22.02;36.48
3150;BME280;32503;47.748;8.960;2023-04-22T09:56:47;96341.50;;;21.65;37.37
3150;BME280;32503;47.748;8.960;2023-04-22T09:59:19;96339.97;;;20.96;38.15
3150;BME280;32503;47.748;8.960;2023-04-22T10:01:49;96340.56;;;21.29;38.30
3150;BME280;32503;47.748;8.960;2023-04-22T10:04:16;96341.72;;;21.57;38.13
3150;BME280;32503;47.748;8.960;2023-04-22T10:06:46;96336.91;;;21.74;38.17
3150;BME280;32503;47.748;8.960;2023-04-22T10:09:14;96329.25;;;21.91;37.34
3150;BME280;32503;47.748;8.960;2023-04-22T10:11:41;96334.69;;;21.82;37.02
3150;BME280;32503;47.748;8.960;2023-04-22T10:14:09;96324.75;;;21.85;36.95
3150;BME280;32503;47.748;8.960;2023-04-22T10:16:40;96326.31;;;21.86;35.87
3150;BME280;32503;47.748;8.960;2023-04-22T10:19:12;96324.84;;;22.07;35.96
3150;BME280;32503;47.748;8.960;2023-04-22T10:21:41;96315.13;;;22.28;36.29
3150;BME280;32503;47.748;8.960;2023-04-22T10:24:14;96321.66;;;22.56;35.49
3150;BME280;32503;47.748;8.960;2023-04-22T10:26:47;96323.69;;;22.65;35.30
3150;BME280;32503;47.748;8.960;2023-04-22T10:29:19;96323.59;;;22.21;35.05
3150;BME280;32503;47.748;8.960;2023-04-22T10:31:53;96320.91;;;21.95;35.20
3150;BME280;32503;47.748;8.960;2023-04-22T10:34:22;96321.91;;;21.88;36.08
3150;BME280;32503;47.748;8.960;2023-04-22T10:36:54;96318.03;;;21.99;36.48
3150;BME280;32503;47.748;8.960;2023-04-22T10:39:22;96325.00;;;22.25;36.60
3150;BME280;32503;47.748;8.960;2023-04-22T10:41:57;96315.88;;;22.63;36.01
3150;BME280;32503;47.748;8.960;2023-04-22T10:44:47;96322.84;;;22.99;35.24
3150;BME280;32503;47.748;8.960;2023-04-22T10:47:25;96316.91;;;23.23;35.00
3150;BME280;32503;47.748;8.960;2023-04-22T10:50:11;96308.94;;;23.56;35.08
3150;BME280;32503;47.748;8.960;2023-04-22T10:52:39;96309.19;;;23.80;33.76
3150;BME280;32503;47.748;8.960;2023-04-22T10:55:07;96308.00;;;23.91;34.49
3150;BME280;32503;47.748;8.960;2023-04-22T10:57:40;96303.13;;;23.95;33.37
3150;BME280;32503;47.748;8.960;2023-04-22T11:00:31;96312.59;;;23.94;33.52
3150;BME280;32503;47.748;8.960;2023-04-22T11:03:14;96312.19;;;24.14;33.95
3150;BME280;32503;47.748;8.960;2023-04-22T11:05:42;96309.91;;;24.21;33.48
3150;BME280;32503;47.748;8.960;2023-04-22T11:08:18;96307.16;;;24.31;33.64
3150;BME280;32503;47.748;8.960;2023-04-22T11:10:48;96308.06;;;24.37;33.50
3150;BME280;32503;47.748;8.960;2023-04-22T11:13:17;96314.66;;;24.49;33.23
3150;BME280;32503;47.748;8.960;2023-04-22T11:15:48;96315.31;;;24.62;32.88
3150;BME280;32503;47.748;8.960;2023-04-22T11:18:20;96312.84;;;24.83;32.62
3150;BME280;32503;47.748;8.960;2023-04-22T11:20:49;96315.44;;;24.77;32.38
3150;BME280;32503;47.748;8.960;2023-04-22T11:23:23;96319.13;;;24.92;32.98
3150;BME280;32503;47.748;8.960;2023-04-22T11:25:55;96307.00;;;24.99;30.91
3150;BME280;32503;47.748;8.960;2023-04-22T11:28:23;96313.78;;;24.79;31.21
3150;BME280;32503;47.748;8.960;2023-04-22T11:30:52;96305.63;;;24.76;31.76
3150;BME280;32503;47.748;8.960;2023-04-22T11:33:19;96305.00;;;24.81;32.08
3150;BME280;32503;47.748;8.960;2023-04-22T11:35:48;96299.78;;;24.74;31.87
3150;BME280;32503;47.748;8.960;2023-04-22T11:38:16;96287.50;;;24.75;31.06
3150;BME280;32503;47.748;8.960;2023-04-22T11:40:43;96291.34;;;24.77;31.83
3150;BME280;32503;47.748;8.960;2023-04-22T11:43:11;96289.03;;;24.85;32.24
3150;BME280;32503;47.748;8.960;2023-04-22T11:45:38;96282.25;;;25.05;31.45
3150;BME280;32503;47.748;8.960;2023-04-22T11:48:09;96282.19;;;25.23;30.59
3150;BME280;32503;47.748;8.960;2023-04-22T11:50:38;96285.00;;;25.05;30.31
3150;BME280;32503;47.748;8.960;2023-04-22T11:53:13;96284.38;;;25.01;30.49
3150;BME280;32503;47.748;8.960;2023-04-22T11:55:42;96277.19;;;24.94;30.02
3150;BME280;32503;47.748;8.960;2023-04-22T11:58:11;96280.25;;;24.96;31.58
3150;BME280;32503;47.748;8.960;2023-04-22T12:00:41;96286.13;;;24.42;31.94
3150;BME280;32503;47.748;8.960;2023-04-22T12:03:15;96287.00;;;24.02;32.67
3150;BME280;32503;47.748;8.960;2023-04-22T12:05:43;96287.91;;;23.90;33.12
3150;BME280;32503;47.748;8.960;2023-04-22T12:08:12;96289.69;;;23.75;33.20
3150;BME280;32503;47.748;8.960;2023-04-22T12:10:46;96289.81;;;23.71;33.92
3150;BME280;32503;47.748;8.960;2023-04-22T12:13:20;96293.28;;;24.03;33.65
3150;BME280;32503;47.748;8.960;2023-04-22T12:15:52;96286.41;;;24.35;32.51
3150;BME280;32503;47.748;8.960;2023-04-22T12:18:29;96286.91;;;24.71;32.43
3150;BME280;32503;47.748;8.960;2023-04-22T12:20:59;96285.97;;;24.46;31.39
3150;BME280;32503;47.748;8.960;2023-04-22T12:23:26;96286.28;;;24.39;32.39
3150;BME280;32503;47.748;8.960;2023-04-22T12:25:54;96293.06;;;24.66;33.29
3150;BME280;32503;47.748;8.960;2023-04-22T12:28:21;96287.34;;;24.88;32.95
3150;BME280;32503;47.748;8.960;2023-04-22T12:30:48;96294.19;;;25.11;32.89
3150;BME280;32503;47.748;8.960;2023-04-22T12:33:15;96299.41;;;25.18;31.74
3150;BME280;32503;47.748;8.960;2023-04-22T12:35:44;96291.13;;;25.27;31.97
3150;BME280;32503;47.748;8.960;2023-04-22T12:38:11;96296.91;;;25.39;31.62
3150;BME280;32503;47.748;8.960;2023-04-22T12:40:38;96292.94;;;25.30;31.67
3150;BME280;32503;47.748;8.960;2023-04-22T12:43:05;96300.94;;;25.28;32.05
3150;BME280;32503;47.748;8.960;2023-04-22T12:45:33;96299.56;;;25.33;32.16
3150;BME280;32503;47.748;8.960;2023-04-22T12:48:00;96300.56;;;25.45;31.64
3150;BME280;32503;47.748;8.960;2023-04-22T12:50:27;96297.16;;;25.50;31.93
3150;BME280;32503;47.748;8.960;2023-04-22T12:52:55;96301.19;;;25.49;32.50
3150;BME280;32503;47.748;8.960;2023-04-22T12:55:22;96289.84;;;25.38;33.26
3150;BME280;32503;47.748;8.960;2023-04-22T12:57:51;96301.22;;;25.40;32.65
3150;BME280;32503;47.748;8.960;2023-04-22T13:00:18;96289.25;;;25.33;32.95
3150;BME280;32503;47.748;8.960;2023-04-22T13:02:47;96302.63;;;25.35;31.78
3150;BME280;32503;47.748;8.960;2023-04-22T13:05:15;96299.72;;;25.29;30.85
3150;BME280;32503;47.748;8.960;2023-04-22T13:07:43;96298.28;;;24.73;29.22
3150;BME280;32503;47.748;8.960;2023-04-22T13:10:14;96295.22;;;24.71;30.01
3150;BME280;32503;47.748;8.960;2023-04-22T13:12:42;96292.75;;;24.73;30.54
3150;BME280;32503;47.748;8.960;2023-04-22T13:15:10;96290.88;;;24.79;31.39